Time;durP1;ratioP1;P1;durP2;ratioP2;P2;SDS_P1;SDS_P2;PMS_P1;PMS_P2;Temp;Humidity;BMP_temperature;BMP_pressure;BME280_temperature;BME280_humidity;BME280_pressure;Samples;Min_cycle;Max_cycle;Signal;HPM_P1;HPM_P2
2023/09/23 00:00:56;;;;;;;20.63;5.45;;;;;;;20.54;51.08;100192.56;5024683;28;20041;-66
2023/09/23 00:03:23;;;;;;;15.00;5.43;;;;;;;20.46;51.53;100193.59;5024656;28;20625;-66
2023/09/23 00:05:52;;;;;;;13.32;4.50;;;;;;;20.50;51.72;100194.00;5057717;28;20101;-66
2023/09/23 00:08:18;;;;;;;21.27;5.07;;;;;;;20.37;51.50;100194.00;5024871;28;20549;-66
2023/09/23 00:10:46;;;;;;;15.23;5.22;;;;;;;20.38;51.42;100204.59;5024533;28;20036;-67
2023/09/23 00:13:12;;;;;;;16.90;4.85;;;;;;;20.43;51.36;100199.41;5008150;28;20040;-66
2023/09/23 00:15:42;;;;;;;13.93;5.55;;;;;;;20.59;51.52;100200.88;5041202;28;20040;-65
2023/09/23 00:18:08;;;;;;;16.48;5.97;;;;;;;20.47;51.04;100199.81;5057622;28;20047;-65
2023/09/23 00:20:36;;;;;;;14.18;5.50;;;;;;;20.47;51.02;100202.50;5024425;28;20052;-66
2023/09/23 00:23:05;;;;;;;16.85;5.10;;;;;;;20.44;51.03;100211.00;5057112;28;20052;-65
2023/09/23 00:25:33;;;;;;;21.20;5.30;;;;;;;20.43;51.18;100212.91;5024037;28;20048;-66
2023/09/23 00:28:00;;;;;;;16.50;5.40;;;;;;;20.42;51.29;100202.31;5040857;28;20048;-66
2023/09/23 00:30:26;;;;;;;26.02;5.40;;;;;;;20.37;51.40;100202.94;5024082;28;20036;-66
2023/09/23 00:32:53;;;;;;;14.48;4.80;;;;;;;20.30;51.54;100203.94;5040641;28;20055;-66
2023/09/23 00:35:19;;;;;;;24.08;5.60;;;;;;;20.32;51.63;100196.50;5024184;28;20040;-66
2023/09/23 00:37:48;;;;;;;21.38;5.28;;;;;;;20.33;51.69;100193.59;5024164;28;20040;-66
2023/09/23 00:40:23;;;;;;;10.52;4.63;;;;;;;20.27;51.81;100202.50;5024060;28;20044;-66
2023/09/23 00:42:50;;;;;;;19.77;5.07;;;;;;;20.29;51.39;100196.91;5054091;28;20109;-66
2023/09/23 00:45:17;;;;;;;19.27;5.25;;;;;;;20.30;51.38;100195.84;5023617;28;20047;-66
2023/09/23 00:47:44;;;;;;;16.35;5.30;;;;;;;20.24;51.68;100194.81;5040597;28;20044;-67
2023/09/23 00:50:17;;;;;;;19.10;5.50;;;;;;;20.23;51.96;100193.19;5040538;28;20432;-66
2023/09/23 00:52:43;;;;;;;18.98;5.00;;;;;;;20.14;51.94;100204.38;5041368;28;20040;-68
2023/09/23 00:55:10;;;;;;;17.73;5.18;;;;;;;20.13;52.22;100195.44;5040301;28;20082;-67
2023/09/23 00:57:37;;;;;;;18.95;5.10;;;;;;;20.14;52.51;100197.13;5040269;28;20083;-65
2023/09/23 01:00:04;;;;;;;11.95;4.97;;;;;;;20.03;52.29;100197.69;5007306;28;20047;-67
2023/09/23 01:02:31;;;;;;;21.83;5.25;;;;;;;19.98;52.59;100192.06;5007926;28;20067;-66
2023/09/23 01:04:59;;;;;;;17.48;4.65;;;;;;;20.02;52.81;100188.75;5023696;28;20057;-66
2023/09/23 01:07:27;;;;;;;11.23;4.50;;;;;;;20.04;52.49;100189.38;5023559;28;20361;-66
2023/09/23 01:09:52;;;;;;;9.95;4.35;;;;;;;20.03;52.57;100193.09;5023921;28;20123;-66
2023/09/23 01:12:19;;;;;;;9.38;4.43;;;;;;;20.03;52.67;100195.78;5007038;28;20102;-66
2023/09/23 01:14:45;;;;;;;19.67;5.18;;;;;;;20.03;52.87;100195.00;5056282;28;20486;-66
2023/09/23 01:17:14;;;;;;;13.77;4.90;;;;;;;20.04;52.76;100192.09;5023746;28;20044;-66
2023/09/23 01:19:40;;;;;;;20.80;4.88;;;;;;;19.95;52.73;100206.81;5040511;28;20051;-66
2023/09/23 01:22:08;;;;;;;18.73;4.68;;;;;;;19.97;52.95;100196.63;5023197;28;20625;-66
2023/09/23 01:24:35;;;;;;;18.30;5.40;;;;;;;19.91;53.13;100192.03;5023630;28;20044;-66
2023/09/23 01:27:03;;;;;;;19.63;5.45;;;;;;;19.87;53.52;100200.75;5023300;28;20067;-65
2023/09/23 01:29:30;;;;;;;18.13;5.40;;;;;;;19.86;53.57;100194.56;5040042;28;20076;-66
2023/09/23 01:32:10;;;;;;;19.98;5.53;;;;;;;19.94;53.77;100197.03;4999060;28;20147;-65
2023/09/23 01:34:36;;;;;;;20.23;5.40;;;;;;;19.71;54.33;100203.84;4982945;28;20099;-66
2023/09/23 01:37:02;;;;;;;23.40;5.15;;;;;;;19.70;54.33;100203.00;4982800;28;20057;-66
2023/09/23 01:39:29;;;;;;;20.10;5.10;;;;;;;19.74;54.32;100196.16;5015270;28;20069;-66
2023/09/23 01:41:55;;;;;;;20.17;4.78;;;;;;;19.71;54.55;100193.88;4982564;28;20432;-66
2023/09/23 01:44:21;;;;;;;22.13;5.00;;;;;;;19.68;54.81;100201.56;5015364;28;20497;-66
2023/09/23 01:46:49;;;;;;;15.90;4.78;;;;;;;19.63;54.77;100206.72;4983037;28;20056;-66
2023/09/23 01:49:16;;;;;;;18.02;5.30;;;;;;;19.63;54.46;100199.47;4982890;28;20045;-66
2023/09/23 01:51:44;;;;;;;19.98;4.90;;;;;;;19.65;54.71;100205.47;4982626;28;20541;-66
2023/09/23 01:54:16;;;;;;;18.23;5.50;;;;;;;19.64;55.04;100202.97;4982911;28;20045;-67
2023/09/23 01:56:44;;;;;;;18.48;4.95;;;;;;;19.65;55.30;100205.47;4982937;28;20220;-66
2023/09/23 01:59:12;;;;;;;13.00;4.72;;;;;;;19.61;55.27;100203.38;4999065;28;20052;-65
2023/09/23 02:01:40;;;;;;;13.73;4.80;;;;;;;19.58;55.25;100203.78;4999094;28;20042;-65
2023/09/23 02:04:09;;;;;;;19.98;5.75;;;;;;;19.58;55.65;100207.31;5022177;28;20052;-66
2023/09/23 02:06:40;;;;;;;24.63;5.53;;;;;;;19.51;55.52;100205.63;5039308;28;20041;-66
2023/09/23 02:09:09;;;;;;;;;;;;;;;19.60;55.59;100207.13;5055900;28;20048;-65
2023/09/23 02:11:38;;;;;;;18.75;5.10;;;;;;;19.46;56.09;100211.63;5072821;28;19922;-66
2023/09/23 02:14:05;;;;;;;19.95;4.93;;;;;;;19.46;55.83;100206.25;5022106;28;20136;-66
2023/09/23 02:16:32;;;;;;;19.83;5.38;;;;;;;19.42;56.21;100210.34;5006074;28;20056;-66
2023/09/23 02:19:00;;;;;;;24.60;5.85;;;;;;;19.43;56.30;100222.81;5055270;28;20036;-66
2023/09/23 02:21:30;;;;;;;20.33;5.90;;;;;;;19.35;56.34;100211.34;5038748;28;20135;-66
2023/09/23 02:24:16;;;;;;;34.70;6.38;;;;;;;19.31;56.48;100219.00;5030910;28;20499;-66
2023/09/23 02:26:42;;;;;;;24.20;5.68;;;;;;;19.32;56.51;100222.53;5054739;28;20531;-66
2023/09/23 02:29:09;;;;;;;19.83;5.05;;;;;;;19.31;56.41;100218.19;5021928;28;20044;-67
2023/09/23 02:31:36;;;;;;;19.27;5.82;;;;;;;19.26;56.74;100218.75;5055058;28;20048;-66
2023/09/23 02:34:02;;;;;;;18.00;5.10;;;;;;;19.18;56.95;100218.91;5054780;28;20143;-66
2023/09/23 02:36:28;;;;;;;23.10;5.78;;;;;;;19.20;57.12;100222.25;5072308;28;20464;-66
2023/09/23 02:38:54;;;;;;;19.92;5.03;;;;;;;19.14;57.24;100220.34;5021738;28;20043;-66
2023/09/23 02:41:19;;;;;;;21.98;5.60;;;;;;;19.20;57.07;100222.25;5053441;28;20040;-67
2023/09/23 02:43:47;;;;;;;33.00;5.75;;;;;;;19.21;57.41;100215.81;5021344;28;20045;-66
2023/09/23 02:46:15;;;;;;;14.77;5.43;;;;;;;19.16;57.19;100220.16;5020874;28;20094;-66
2023/09/23 02:48:41;;;;;;;17.40;5.28;;;;;;;19.14;57.58;100220.34;5037139;28;20067;-66
2023/09/23 02:51:07;;;;;;;19.20;5.40;;;;;;;19.18;57.26;100218.06;5036334;28;20488;-66
2023/09/23 02:53:35;;;;;;;15.05;5.82;;;;;;;19.25;57.53;100221.66;4997058;28;20140;-65
2023/09/23 02:56:08;;;;;;;16.15;5.88;;;;;;;19.21;57.64;100221.22;4981917;28;20156;-66
2023/09/23 02:58:35;;;;;;;18.35;5.60;;;;;;;19.13;57.71;100217.81;4981552;28;20064;-65
2023/09/23 03:01:04;;;;;;;20.42;5.93;;;;;;;19.13;57.58;100229.44;5013656;28;20164;-65
2023/09/23 03:03:33;;;;;;;24.45;5.80;;;;;;;19.14;58.13;100219.50;4981510;28;20140;-65
2023/09/23 03:06:02;;;;;;;20.85;6.35;;;;;;;19.05;58.08;100213.44;4981409;28;20061;-66
2023/09/23 03:08:31;;;;;;;23.90;6.00;;;;;;;18.98;58.14;100222.50;4998337;28;20115;-65
2023/09/23 03:11:02;;;;;;;16.52;6.10;;;;;;;18.99;58.16;100221.50;4981211;28;20068;-66
2023/09/23 03:13:29;;;;;;;18.75;6.13;;;;;;;18.93;58.69;100216.91;4998002;28;20049;-66
2023/09/23 03:16:04;;;;;;;20.85;6.53;;;;;;;18.98;58.93;100233.28;4980922;28;20115;-66
2023/09/23 03:18:54;;;;;;;18.70;6.93;;;;;;;18.99;58.65;100229.56;4981182;28;20054;-66
2023/09/23 03:21:20;;;;;;;15.52;6.07;;;;;;;19.01;58.65;100233.72;5013641;28;20484;-69
2023/09/23 03:23:46;;;;;;;13.32;6.18;;;;;;;18.98;58.51;100234.13;4988694;28;20080;-66
2023/09/23 03:26:19;;;;;;;26.08;6.03;;;;;;;19.05;58.81;100234.97;5004453;28;20072;-66
2023/09/23 03:28:46;;;;;;;15.55;5.95;;;;;;;18.96;58.78;100225.41;5020150;28;20044;-66
2023/09/23 03:31:14;;;;;;;17.23;5.47;;;;;;;18.93;58.73;100231.19;5020217;28;20052;-66
2023/09/23 03:33:44;;;;;;;17.05;5.82;;;;;;;18.92;58.67;100224.13;5021684;28;20033;-66
2023/09/23 03:36:15;;;;;;;17.88;5.90;;;;;;;19.05;58.82;100237.66;5037512;28;20045;-66
2023/09/23 03:38:42;;;;;;;21.05;5.28;;;;;;;18.95;59.02;100229.13;5021021;28;20436;-66
2023/09/23 03:41:08;;;;;;;20.02;6.00;;;;;;;18.91;58.82;100237.81;5020867;28;20067;-66
2023/09/23 03:43:34;;;;;;;13.68;5.43;;;;;;;18.99;58.29;100243.03;5037518;28;20056;-65
2023/09/23 03:46:00;;;;;;;14.00;5.88;;;;;;;18.88;58.93;100241.69;5037263;28;20033;-65
2023/09/23 03:48:25;;;;;;;11.52;5.35;;;;;;;18.92;58.82;100240.28;5020924;28;20082;-66
2023/09/23 03:50:52;;;;;;;17.08;5.88;;;;;;;18.92;58.87;100245.69;5037480;28;20438;-66
2023/09/23 03:53:22;;;;;;;21.08;5.57;;;;;;;19.04;58.56;100244.09;5038328;28;20052;-66
2023/09/23 03:55:49;;;;;;;15.77;5.57;;;;;;;18.96;59.12;100248.81;5021619;28;20074;-66
2023/09/23 03:58:17;;;;;;;21.70;5.55;;;;;;;19.01;58.90;100238.25;5020953;28;20143;-66
2023/09/23 04:00:44;;;;;;;16.17;5.60;;;;;;;18.93;59.17;100243.81;5021031;28;20048;-66
2023/09/23 04:03:14;;;;;;;18.13;5.60;;;;;;;18.97;58.81;100239.69;5037158;28;20054;-66
2023/09/23 04:05:40;;;;;;;21.85;5.78;;;;;;;18.95;58.71;100241.75;5021460;28;20044;-66
2023/09/23 04:08:06;;;;;;;14.57;5.68;;;;;;;19.01;58.73;100243.66;5036930;28;20499;-67
2023/09/23 04:10:36;;;;;;;14.68;5.78;;;;;;;19.13;58.84;100242.91;5053654;28;20455;-66
2023/09/23 04:13:03;;;;;;;24.27;6.18;;;;;;;19.09;58.32;100246.19;5037400;28;20436;-65
2023/09/23 04:15:28;;;;;;;14.20;5.65;;;;;;;19.09;58.41;100246.19;5020608;28;20040;-67
2023/09/23 04:17:54;;;;;;;15.20;5.60;;;;;;;19.15;58.29;100248.09;5004475;28;20393;-67
2023/09/23 04:20:23;;;;;;;23.27;6.50;;;;;;;19.22;58.19;100257.06;5039588;28;20041;-66
2023/09/23 04:22:49;;;;;;;18.33;6.38;;;;;;;19.20;58.01;100251.88;5024463;28;20044;-67
2023/09/23 04:25:15;;;;;;;18.13;5.80;;;;;;;19.05;57.92;100253.81;5024201;28;20047;-66
2023/09/23 04:27:41;;;;;;;18.48;5.72;;;;;;;19.20;57.71;100259.09;5007751;28;20044;-66
2023/09/23 04:30:11;;;;;;;18.92;5.70;;;;;;;19.33;57.45;100261.91;5024068;28;20571;-66
2023/09/23 04:32:41;;;;;;;14.07;6.00;;;;;;;19.36;57.30;100266.88;5024488;28;20036;-67
2023/09/23 04:35:08;;;;;;;10.55;5.93;;;;;;;19.35;57.39;100263.38;5041874;28;20036;-71
2023/09/23 04:37:37;;;;;;;16.95;6.70;;;;;;;19.40;56.89;100265.47;5040426;28;20189;-70
2023/09/23 04:40:11;;;;;;;17.00;6.03;;;;;;;19.46;56.67;100268.22;5024009;28;20050;-70
2023/09/23 04:42:39;;;;;;;20.92;6.20;;;;;;;19.56;56.39;100274.03;5058150;28;20087;-81
2023/09/23 04:45:07;;;;;;;20.42;6.35;;;;;;;19.61;56.57;100273.44;5023719;28;20166;-70
2023/09/23 04:47:35;;;;;;;21.50;5.70;;;;;;;19.58;55.69;100274.69;5024387;28;20109;-70
2023/09/23 04:50:04;;;;;;;18.50;6.45;;;;;;;19.66;55.82;100274.53;5073363;28;20099;-70
2023/09/23 04:52:32;;;;;;;19.98;5.95;;;;;;;19.70;55.53;100275.78;5008140;28;20142;-73
2023/09/23 04:55:02;;;;;;;17.15;6.10;;;;;;;19.61;55.58;100279.69;5023869;28;20384;-79
2023/09/23 04:57:31;;;;;;;12.80;6.25;;;;;;;19.64;55.37;100273.88;5009066;28;20056;-72
2023/09/23 04:59:57;;;;;;;21.23;5.70;;;;;;;19.76;55.29;100277.66;5007169;28;20041;-70
2023/09/23 05:02:23;;;;;;;23.75;5.97;;;;;;;19.77;55.16;100279.31;5007341;28;20358;-77
2023/09/23 05:04:53;;;;;;;21.85;6.13;;;;;;;19.82;55.09;100282.25;5023315;28;20051;-75
2023/09/23 05:07:20;;;;;;;16.83;6.22;;;;;;;19.89;54.88;100279.56;5007797;28;20044;-71
2023/09/23 05:09:46;;;;;;;15.43;5.97;;;;;;;19.95;55.33;100279.59;5023250;28;20049;-71
2023/09/23 05:12:14;;;;;;;22.75;6.50;;;;;;;20.07;54.93;100283.38;5007042;28;20066;-71
2023/09/23 05:14:42;;;;;;;22.33;6.65;;;;;;;20.15;54.24;100284.25;5007030;28;20071;-70
2023/09/23 05:17:15;;;;;;;14.77;6.45;;;;;;;20.20;54.20;100285.31;5023007;28;20041;-71
2023/09/23 05:19:45;;;;;;;18.77;6.30;;;;;;;20.36;54.14;100284.91;5055345;28;20062;-69
2023/09/23 05:22:10;;;;;;;15.30;6.25;;;;;;;20.43;53.47;100291.16;5039165;28;20080;-71
2023/09/23 05:24:38;;;;;;;20.45;6.47;;;;;;;20.44;53.33;100291.97;5022867;28;20075;-70
2023/09/23 05:27:05;;;;;;;19.20;6.25;;;;;;;20.44;53.18;100298.22;5040040;28;20472;-72
2023/09/23 05:29:31;;;;;;;21.45;6.28;;;;;;;20.61;53.35;100295.94;5054515;28;20480;-76
2023/09/23 05:31:57;;;;;;;18.45;6.07;;;;;;;20.72;52.59;100295.31;5003600;28;20047;-75
2023/09/23 05:34:24;;;;;;;25.35;6.75;;;;;;;20.88;52.43;100297.63;4976840;28;20481;-73
2023/09/23 05:36:50;;;;;;;23.08;6.82;;;;;;;20.96;52.03;100297.41;4944571;28;20045;-71
2023/09/23 05:39:19;;;;;;;31.50;6.90;;;;;;;21.09;51.99;100298.25;4938342;28;20055;-74
2023/09/23 05:41:48;;;;;;;31.80;6.97;;;;;;;21.16;51.81;100303.63;4939101;28;20082;-72
2023/09/23 05:44:15;;;;;;;19.52;7.55;;;;;;;21.27;51.87;100300.28;4949965;28;20047;-72
2023/09/23 05:46:42;;;;;;;23.02;7.18;;;;;;;21.40;51.57;100295.69;4913132;28;20101;-74
2023/09/23 05:49:14;;;;;;;22.83;6.40;;;;;;;21.43;51.00;100299.84;4911648;28;20066;-74
2023/09/23 05:51:40;;;;;;;22.50;7.68;;;;;;;21.50;50.89;100297.94;4946391;28;20057;-73
2023/09/23 05:54:09;;;;;;;28.20;6.93;;;;;;;21.91;49.92;100306.56;4930479;28;20051;-74
2023/09/23 05:56:38;;;;;;;23.90;6.72;;;;;;;22.17;48.73;100311.84;4924318;28;20046;-74
2023/09/23 05:59:05;;;;;;;29.10;6.28;;;;;;;22.71;47.57;100316.75;4940564;28;20082;-74
2023/09/23 06:01:33;;;;;;;18.77;6.32;;;;;;;22.93;46.28;100310.72;4956325;28;20104;-74
2023/09/23 06:03:59;;;;;;;24.70;6.28;;;;;;;23.06;45.61;100315.22;4940399;28;20364;-73
2023/09/23 06:06:27;;;;;;;22.90;5.80;;;;;;;23.20;45.32;100314.84;4924574;28;20086;-74
2023/09/23 06:08:53;;;;;;;20.23;5.38;;;;;;;23.43;44.06;100326.97;4956081;28;20054;-75
2023/09/23 06:11:20;;;;;;;14.35;5.35;;;;;;;23.31;44.33;100320.63;4977435;28;20053;-75
2023/09/23 06:13:46;;;;;;;19.60;5.68;;;;;;;23.17;45.10;100323.44;4986633;28;20048;-74
2023/09/23 06:16:16;;;;;;;25.77;5.45;;;;;;;22.87;44.99;100319.75;5003000;28;20481;-75
2023/09/23 06:18:42;;;;;;;16.67;5.30;;;;;;;22.77;45.75;100313.97;5002932;28;20135;-73
2023/09/23 06:21:08;;;;;;;11.80;5.20;;;;;;;22.76;45.61;100317.75;5035539;28;20049;-75
2023/09/23 06:23:34;;;;;;;11.25;4.57;;;;;;;22.87;45.29;100316.19;4962224;28;20050;-74
2023/09/23 06:26:04;;;;;;;13.10;5.28;;;;;;;23.17;45.07;100323.44;4976148;28;20088;-74
2023/09/23 06:28:34;;;;;;;11.75;4.90;;;;;;;23.39;44.30;100323.06;4976846;28;20572;-74
2023/09/23 06:31:00;;;;;;;22.05;5.07;;;;;;;23.53;44.03;100343.53;4979007;28;20041;-74
2023/09/23 06:33:26;;;;;;;19.95;4.95;;;;;;;23.83;43.59;100326.31;4961018;28;20141;-74
2023/09/23 06:35:52;;;;;;;25.98;6.18;;;;;;;24.07;43.06;100325.41;4962119;28;20042;-75
2023/09/23 06:38:18;;;;;;;21.35;4.70;;;;;;;24.60;41.90;100320.88;4994730;28;20065;-74
2023/09/23 06:40:44;;;;;;;14.85;4.68;;;;;;;25.06;40.85;100322.91;4978487;28;20045;-75
2023/09/23 06:43:10;;;;;;;11.95;5.20;;;;;;;25.43;39.99;100329.78;4961818;28;20139;-75
2023/09/23 06:45:52;;;;;;;22.00;5.22;;;;;;;25.64;38.90;100317.47;4980740;28;20061;-74
2023/09/23 06:48:18;;;;;;;17.70;4.72;;;;;;;25.45;39.19;100314.06;5012113;28;20056;-75
2023/09/23 06:50:44;;;;;;;26.33;4.97;;;;;;;25.45;38.79;100326.84;4962066;28;20054;-75
2023/09/23 06:53:10;;;;;;;22.20;4.40;;;;;;;25.45;38.64;100315.97;4946175;28;20042;-77
2023/09/23 06:55:36;;;;;;;14.75;4.40;;;;;;;25.32;38.51;100318.88;5000883;28;20114;-74
2023/09/23 06:58:02;;;;;;;18.50;4.57;;;;;;;25.21;38.46;100319.72;5034984;28;20040;-71
2023/09/23 07:00:28;;;;;;;19.52;4.65;;;;;;;25.12;38.09;100338.28;5002259;28;20049;-73
2023/09/23 07:02:55;;;;;;;19.15;4.40;;;;;;;25.09;37.92;100319.72;5017940;28;20130;-73
2023/09/23 07:05:21;;;;;;;21.75;4.53;;;;;;;25.28;37.88;100323.16;5018285;28;20488;-72
2023/09/23 07:07:47;;;;;;;27.10;4.65;;;;;;;25.38;37.31;100313.38;5034530;28;20040;-71
2023/09/23 07:10:13;;;;;;;43.00;5.63;;;;;;;25.62;37.21;100325.03;5018042;28;20037;-71
2023/09/23 07:12:39;;;;;;;21.20;4.70;;;;;;;25.85;36.41;100314.94;5001982;28;20057;-71
2023/09/23 07:15:06;;;;;;;29.25;5.05;;;;;;;26.35;36.11;100331.50;5017758;28;20045;-73
2023/09/23 07:17:32;;;;;;;36.67;6.20;;;;;;;27.85;34.19;100333.16;5003437;28;20443;-72
2023/09/23 07:19:58;;;;;;;20.88;4.95;;;;;;;30.29;30.52;100319.06;5027685;28;20040;-72
2023/09/23 07:22:24;;;;;;;25.92;4.68;;;;;;;32.99;26.49;100327.78;5016745;28;20047;-73
2023/09/23 07:24:50;;;;;;;17.40;4.18;;;;;;;35.33;23.38;100325.03;4995681;28;20063;-72
2023/09/23 07:27:16;;;;;;;19.98;4.55;;;;;;;37.07;20.59;100334.59;5015327;28;20048;-73
2023/09/23 07:29:42;;;;;;;20.60;4.32;;;;;;;39.37;18.30;100334.31;5001401;28;20041;-73
2023/09/23 07:32:08;;;;;;;13.90;3.80;;;;;;;40.21;16.42;100329.59;5033841;28;20056;-74
2023/09/23 07:34:34;;;;;;;15.55;3.60;;;;;;;40.60;15.77;100323.56;4985229;28;20400;-74
2023/09/23 07:37:00;;;;;;;12.90;4.00;;;;;;;40.92;14.84;100322.03;5034037;28;20041;-74
2023/09/23 07:39:25;;;;;;;23.02;3.95;;;;;;;41.51;14.39;100329.78;5001564;28;20044;-74
2023/09/23 07:41:52;;;;;;;15.50;3.35;;;;;;;41.78;14.12;100323.50;5001046;28;20053;-74
2023/09/23 07:44:18;;;;;;;19.40;3.35;;;;;;;42.94;13.24;100326.38;5025727;28;20064;-73
2023/09/23 07:46:44;;;;;;;20.60;3.72;;;;;;;43.38;13.09;100316.81;5000949;28;20087;-74
2023/09/23 07:49:09;;;;;;;16.15;3.67;;;;;;;44.81;11.94;100312.28;5038745;28;20068;-73
2023/09/23 07:51:37;;;;;;;16.90;3.42;;;;;;;46.26;10.46;100320.09;5039442;28;20487;-73
2023/09/23 07:54:03;;;;;;;16.38;3.88;;;;;;;46.95;10.09;100318.66;4995960;28;20045;-75
2023/09/23 07:56:30;;;;;;;28.73;4.07;;;;;;;46.43;9.67;100322.34;5019321;28;20424;-75
2023/09/23 07:58:56;;;;;;;12.75;3.30;;;;;;;46.19;9.76;100317.22;5022781;28;20233;-74
2023/09/23 08:01:22;;;;;;;9.85;3.35;;;;;;;46.05;10.03;100316.97;5046466;28;20080;-76
2023/09/23 08:03:48;;;;;;;17.98;3.50;;;;;;;46.01;10.12;100319.72;5016054;28;20124;-73
2023/09/23 08:06:14;;;;;;;14.23;3.40;;;;;;;47.07;9.58;100310.72;5028990;28;20068;-74
2023/09/23 08:08:39;;;;;;;15.20;3.30;;;;;;;47.50;8.84;100315.59;4998807;28;20036;-74
2023/09/23 08:11:06;;;;;;;13.00;2.90;;;;;;;48.11;9.02;100306.47;5037231;28;20048;-74
2023/09/23 08:13:31;;;;;;;12.68;3.45;;;;;;;47.29;8.73;100300.53;4998449;28;20051;-73
2023/09/23 08:15:58;;;;;;;19.73;3.30;;;;;;;46.80;8.57;100309.19;5046822;28;20041;-72
2023/09/23 08:18:24;;;;;;;14.48;3.10;;;;;;;45.61;9.22;100311.00;4998369;28;20381;-73
2023/09/23 08:20:56;;;;;;;15.68;2.88;;;;;;;43.98;10.41;100313.59;5054035;28;20144;-73
2023/09/23 08:23:22;;;;;;;13.60;3.20;;;;;;;42.85;10.83;100312.56;5037514;28;20473;-73
2023/09/23 08:25:49;;;;;;;10.18;2.70;;;;;;;43.10;10.87;100293.69;5004702;28;20037;-73
2023/09/23 08:28:14;;;;;;;10.50;3.10;;;;;;;43.03;10.96;100293.47;5004605;28;20128;-73
2023/09/23 08:30:43;;;;;;;17.27;3.33;;;;;;;44.19;10.49;100297.28;5004544;28;20220;-73
2023/09/23 08:33:09;;;;;;;11.02;3.30;;;;;;;45.88;9.48;100297.84;5021142;28;20049;-72
2023/09/23 08:35:36;;;;;;;14.02;3.38;;;;;;;47.55;8.58;100301.16;5054199;28;20049;-73
2023/09/23 08:38:03;;;;;;;13.10;2.83;;;;;;;47.95;8.15;100303.13;5020032;28;20078;-71
2023/09/23 08:40:34;;;;;;;12.65;2.78;;;;;;;46.30;8.79;100301.31;5004326;28;20059;-71
2023/09/23 08:43:05;;;;;;;10.48;2.63;;;;;;;45.49;9.26;100291.56;5004024;28;20044;-71
2023/09/23 08:45:31;;;;;;;11.07;2.88;;;;;;;46.40;9.24;100278.16;5020437;28;20127;-76
2023/09/23 08:47:58;;;;;;;14.30;3.30;;;;;;;46.02;8.80;100284.84;5025394;28;20578;-73
2023/09/23 08:50:25;;;;;;;18.42;2.75;;;;;;;46.51;8.57;100284.75;4999706;28;20497;-74
2023/09/23 08:52:52;;;;;;;15.38;2.83;;;;;;;44.91;9.18;100278.00;4960668;28;20054;-75
2023/09/23 08:55:19;;;;;;;10.40;2.88;;;;;;;43.81;9.90;100287.97;4960676;28;20062;-78
2023/09/23 08:57:46;;;;;;;4.63;2.60;;;;;;;43.08;10.23;100299.63;4929095;28;20160;-75
2023/09/23 09:00:13;;;;;;;15.65;3.30;;;;;;;42.75;10.59;100284.31;4960551;28;20054;-74
2023/09/23 09:02:39;;;;;;;11.48;2.88;;;;;;;42.26;10.87;100294.75;4960684;28;20389;-72
2023/09/23 09:05:05;;;;;;;12.55;3.13;;;;;;;42.36;10.92;100269.19;4944491;28;20065;-73
2023/09/23 09:07:38;;;;;;;10.07;2.97;;;;;;;43.18;10.50;100273.94;4960465;28;20061;-74
2023/09/23 09:10:04;;;;;;;11.52;3.30;;;;;;;44.59;10.22;100266.97;4960857;28;20046;-74
2023/09/23 09:12:32;;;;;;;11.30;2.72;;;;;;;45.93;8.62;100269.44;4976607;28;20057;-74
2023/09/23 09:14:59;;;;;;;17.45;2.90;;;;;;;46.71;8.39;100265.69;4955198;28;20065;-74
2023/09/23 09:17:27;;;;;;;8.10;3.05;;;;;;;46.43;8.65;100279.38;4938720;28;20078;-74
2023/09/23 09:19:54;;;;;;;10.95;2.85;;;;;;;46.19;8.32;100275.06;4939800;28;20087;-75
2023/09/23 09:22:20;;;;;;;10.65;2.78;;;;;;;44.87;9.15;100277.97;4925190;28;20062;-74
2023/09/23 09:24:49;;;;;;;15.63;3.30;;;;;;;44.44;9.58;100262.22;4975054;28;20087;-74
2023/09/23 09:27:15;;;;;;;9.82;2.55;;;;;;;44.01;9.65;100275.66;4983676;28;20152;-74
2023/09/23 09:29:43;;;;;;;11.27;2.72;;;;;;;43.48;10.01;100254.72;4966894;28;20107;-73
2023/09/23 09:32:10;;;;;;;9.52;3.20;;;;;;;43.13;10.02;100267.81;4983381;28;20056;-74
2023/09/23 09:34:46;;;;;;;7.13;2.67;;;;;;;42.73;10.62;100265.09;4983585;28;20053;-74
2023/09/23 09:37:15;;;;;;;12.88;3.80;;;;;;;43.83;9.79;100249.19;4966847;28;20061;-73
2023/09/23 09:39:52;;;;;;;8.50;2.40;;;;;;;44.27;8.96;100256.28;4983351;28;20083;-73
2023/09/23 09:42:27;;;;;;;12.25;2.70;;;;;;;42.55;9.76;100276.91;5031922;28;20141;-73
2023/09/23 09:44:55;;;;;;;4.90;2.22;;;;;;;40.81;11.24;100279.81;4968664;28;20505;-73
2023/09/23 09:47:22;;;;;;;6.93;2.25;;;;;;;40.38;11.25;100271.00;4987124;28;20041;-73
2023/09/23 09:49:54;;;;;;;18.70;3.22;;;;;;;40.20;11.72;100252.78;4987700;28;20052;-74
2023/09/23 09:52:22;;;;;;;8.27;2.42;;;;;;;40.90;11.65;100255.47;4988980;28;20047;-73
2023/09/23 09:54:52;;;;;;;9.30;2.80;;;;;;;41.58;11.58;100245.53;5021440;28;20492;-73
2023/09/23 09:57:22;;;;;;;12.02;2.58;;;;;;;42.47;10.70;100252.72;4996598;28;20061;-74
2023/09/23 09:59:52;;;;;;;11.30;2.80;;;;;;;42.81;10.74;100260.53;4979256;28;20138;-73
2023/09/23 10:02:21;;;;;;;7.72;2.60;;;;;;;42.18;10.71;100255.81;4995419;28;20228;-73
2023/09/23 10:04:51;;;;;;;7.28;3.38;;;;;;;41.82;10.77;100262.25;4979155;28;20154;-73
2023/09/23 10:07:17;;;;;;;12.52;2.60;;;;;;;40.34;11.38;100274.81;4962975;28;20061;-73
2023/09/23 10:09:53;;;;;;;10.90;2.42;;;;;;;39.59;11.81;100262.66;4979181;28;20045;-73
2023/09/23 10:12:31;;;;;;;10.38;2.63;;;;;;;38.84;11.75;100273.63;4979583;28;20074;-74
2023/09/23 10:15:01;;;;;;;9.77;2.80;;;;;;;37.66;12.83;100253.72;4962949;28;20129;-74
2023/09/23 10:17:31;;;;;;;8.93;2.78;;;;;;;37.86;12.78;100285.63;4978435;28;20126;-73
2023/09/23 10:19:57;;;;;;;6.68;2.50;;;;;;;37.21;13.31;100272.44;4978731;28;20077;-73
2023/09/23 10:22:24;;;;;;;11.30;2.85;;;;;;;36.92;13.84;100261.00;4978792;28;20054;-73
2023/09/23 10:25:04;;;;;;;10.00;2.50;;;;;;;37.66;12.91;100230.72;4978775;28;20052;-73
2023/09/23 10:27:36;;;;;;;22.08;3.30;;;;;;;38.54;12.46;100238.50;4986954;28;20053;-73
2023/09/23 10:30:04;;;;;;;13.40;2.80;;;;;;;38.86;11.96;100240.75;5002596;28;20067;-73
2023/09/23 10:32:32;;;;;;;7.88;2.50;;;;;;;38.78;11.72;100268.56;5002667;28;20132;-73
2023/09/23 10:34:59;;;;;;;10.80;2.67;;;;;;;38.53;12.07;100259.91;5002247;28;20045;-73
2023/09/23 10:37:26;;;;;;;6.43;2.60;;;;;;;38.28;12.43;100230.19;5002403;28;20044;-73
2023/09/23 10:39:53;;;;;;;7.30;2.55;;;;;;;38.51;12.35;100241.94;5002622;28;20507;-73
2023/09/23 10:42:20;;;;;;;10.90;2.58;;;;;;;38.70;12.25;100234.91;5002140;28;20045;-73
2023/09/23 10:44:49;;;;;;;8.82;2.70;;;;;;;38.59;12.58;100232.81;5018816;28;20129;-73
2023/09/23 10:47:16;;;;;;;10.33;2.67;;;;;;;38.66;12.67;100261.72;5002747;28;20558;-73
2023/09/23 10:49:42;;;;;;;4.78;2.58;;;;;;;38.50;12.47;100234.75;5002400;28;20775;-73
2023/09/23 10:52:08;;;;;;;18.98;3.28;;;;;;;37.64;12.91;100233.81;4979792;28;20061;-73
2023/09/23 10:54:36;;;;;;;13.07;2.80;;;;;;;37.62;13.20;100232.47;4979314;28;20037;-73
2023/09/23 10:57:03;;;;;;;7.10;2.60;;;;;;;37.81;12.87;100225.53;4978783;28;20045;-71
2023/09/23 10:59:29;;;;;;;7.97;2.97;;;;;;;38.16;12.50;100215.34;4978973;28;20540;-73
2023/09/23 11:02:11;;;;;;;6.97;2.72;;;;;;;37.86;12.73;100214.28;4990625;28;20120;-74
2023/09/23 11:04:48;;;;;;;12.93;3.05;;;;;;;37.57;12.76;100240.94;4952260;29;20047;-74
2023/09/23 11:07:16;;;;;;;8.00;2.97;;;;;;;36.66;13.36;100231.50;4920434;29;20511;-74
2023/09/23 11:09:47;;;;;;;13.50;3.33;;;;;;;36.16;13.55;100277.75;4917287;29;20150;-74
2023/09/23 11:12:15;;;;;;;9.23;2.90;;;;;;;36.05;13.97;100218.25;4917589;29;20055;-74
2023/09/23 11:14:43;;;;;;;10.25;2.70;;;;;;;36.33;13.71;100206.00;4895089;29;20060;-73
2023/09/23 11:17:29;;;;;;;6.80;2.88;;;;;;;36.24;13.90;100204.25;4895021;29;20064;-74
2023/09/23 11:19:56;;;;;;;11.35;3.20;;;;;;;36.00;14.23;100231.41;4879186;29;20053;-73
2023/09/23 11:22:26;;;;;;;7.68;2.17;;;;;;;35.88;14.35;100207.03;4879200;29;20152;-71